sensor_id;sensor_type;location;lat;lon;timestamp;P1;durP1;ratioP1;P2;durP2;ratioP2
51521;SDS011;37608;39.766;2.718;2022-09-12T00:00:19;1.75;;;1.30;;
51521;SDS011;37608;39.766;2.718;2022-09-12T00:02:45;6.00;;;1.88;;
51521;SDS011;37608;39.766;2.718;2022-09-12T00:05:11;7.55;;;1.63;;
51521;SDS011;37608;39.766;2.718;2022-09-12T00:07:37;2.85;;;1.67;;
51521;SDS011;37608;39.766;2.718;2022-09-12T00:10:02;3.50;;;1.17;;
51521;SDS011;37608;39.766;2.718;2022-09-12T00:12:27;3.15;;;1.00;;
51521;SDS011;37608;39.766;2.718;2022-09-12T00:14:53;5.85;;;1.33;;
51521;SDS011;37608;39.766;2.718;2022-09-12T00:17:18;2.22;;;1.15;;
51521;SDS011;37608;39.766;2.718;2022-09-12T00:19:44;2.35;;;1.23;;
51521;SDS011;37608;39.766;2.718;2022-09-12T00:22:09;4.47;;;2.65;;
51521;SDS011;37608;39.766;2.718;2022-09-12T00:24:34;1.20;;;0.70;;
51521;SDS011;37608;39.766;2.718;2022-09-12T00:27:00;3.25;;;1.23;;
51521;SDS011;37608;39.766;2.718;2022-09-12T00:29:25;1.88;;;1.42;;
51521;SDS011;37608;39.766;2.718;2022-09-12T00:31:50;4.07;;;1.27;;
51521;SDS011;37608;39.766;2.718;2022-09-12T00:34:16;1.45;;;0.98;;
51521;SDS011;37608;39.766;2.718;2022-09-12T00:36:41;2.63;;;1.23;;
51521;SDS011;37608;39.766;2.718;2022-09-12T00:39:06;4.75;;;1.55;;
51521;SDS011;37608;39.766;2.718;2022-09-12T00:41:36;1.55;;;1.10;;
51521;SDS011;37608;39.766;2.718;2022-09-12T00:46:44;2.08;;;1.60;;
51521;SDS011;37608;39.766;2.718;2022-09-12T00:51:36;3.92;;;1.65;;
51521;SDS011;37608;39.766;2.718;2022-09-12T00:54:04;4.55;;;1.05;;
51521;SDS011;37608;39.766;2.718;2022-09-12T00:56:30;1.25;;;1.00;;
51521;SDS011;37608;39.766;2.718;2022-09-12T00:59:02;4.85;;;1.10;;
51521;SDS011;37608;39.766;2.718;2022-09-12T01:01:29;6.32;;;1.25;;
51521;SDS011;37608;39.766;2.718;2022-09-12T01:03:55;1.70;;;1.00;;
51521;SDS011;37608;39.766;2.718;2022-09-12T01:06:21;2.45;;;1.40;;
51521;SDS011;37608;39.766;2.718;2022-09-12T01:08:48;0.73;;;0.68;;
51521;SDS011;37608;39.766;2.718;2022-09-12T01:11:15;1.92;;;1.33;;
51521;SDS011;37608;39.766;2.718;2022-09-12T01:13:41;3.03;;;1.10;;
51521;SDS011;37608;39.766;2.718;2022-09-12T01:16:07;3.58;;;1.30;;
51521;SDS011;37608;39.766;2.718;2022-09-12T01:18:44;3.08;;;0.82;;
51521;SDS011;37608;39.766;2.718;2022-09-12T01:31:35;1.27;;;0.80;;
51521;SDS011;37608;39.766;2.718;2022-09-12T01:47:04;2.20;;;0.93;;
51521;SDS011;37608;39.766;2.718;2022-09-12T01:49:38;5.57;;;1.27;;
51521;SDS011;37608;39.766;2.718;2022-09-12T01:52:09;2.97;;;1.63;;
51521;SDS011;37608;39.766;2.718;2022-09-12T01:57:36;2.22;;;0.70;;
51521;SDS011;37608;39.766;2.718;2022-09-12T02:00:04;1.95;;;1.23;;
51521;SDS011;37608;39.766;2.718;2022-09-12T02:02:34;4.22;;;0.77;;
51521;SDS011;37608;39.766;2.718;2022-09-12T02:07:34;1.42;;;0.60;;
51521;SDS011;37608;39.766;2.718;2022-09-12T02:12:28;2.25;;;1.00;;
51521;SDS011;37608;39.766;2.718;2022-09-12T02:15:00;1.27;;;0.88;;
51521;SDS011;37608;39.766;2.718;2022-09-12T02:19:53;2.63;;;1.27;;
51521;SDS011;37608;39.766;2.718;2022-09-12T02:22:19;3.13;;;0.70;;
51521;SDS011;37608;39.766;2.718;2022-09-12T02:24:47;1.25;;;0.65;;
51521;SDS011;37608;39.766;2.718;2022-09-12T02:27:14;1.92;;;0.70;;
51521;SDS011;37608;39.766;2.718;2022-09-12T02:29:40;16.38;;;1.05;;
51521;SDS011;37608;39.766;2.718;2022-09-12T02:32:10;0.73;;;0.35;;
51521;SDS011;37608;39.766;2.718;2022-09-12T02:34:47;2.25;;;0.95;;
51521;SDS011;37608;39.766;2.718;2022-09-12T02:37:39;0.98;;;0.40;;
51521;SDS011;37608;39.766;2.718;2022-09-12T02:40:06;0.52;;;0.40;;
51521;SDS011;37608;39.766;2.718;2022-09-12T02:42:33;1.65;;;0.45;;
51521;SDS011;37608;39.766;2.718;2022-09-12T02:44:58;2.08;;;0.43;;
51521;SDS011;37608;39.766;2.718;2022-09-12T02:47:28;0.90;;;0.57;;
51521;SDS011;37608;39.766;2.718;2022-09-12T02:49:55;0.98;;;0.35;;
51521;SDS011;37608;39.766;2.718;2022-09-12T02:52:20;0.40;;;0.28;;
51521;SDS011;37608;39.766;2.718;2022-09-12T02:54:46;0.30;;;0.28;;
51521;SDS011;37608;39.766;2.718;2022-09-12T02:57:15;0.85;;;0.22;;
51521;SDS011;37608;39.766;2.718;2022-09-12T02:59:41;1.85;;;0.68;;
51521;SDS011;37608;39.766;2.718;2022-09-12T03:12:27;1.13;;;0.60;;
51521;SDS011;37608;39.766;2.718;2022-09-12T03:17:39;1.30;;;1.05;;
51521;SDS011;37608;39.766;2.718;2022-09-12T03:22:36;3.05;;;1.75;;
51521;SDS011;37608;39.766;2.718;2022-09-12T03:27:38;1.95;;;1.27;;
51521;SDS011;37608;39.766;2.718;2022-09-12T03:30:05;2.80;;;0.85;;
51521;SDS011;37608;39.766;2.718;2022-09-12T03:32:44;2.05;;;1.27;;
51521;SDS011;37608;39.766;2.718;2022-09-12T03:35:09;2.90;;;1.45;;
51521;SDS011;37608;39.766;2.718;2022-09-12T03:37:35;2.05;;;0.68;;
51521;SDS011;37608;39.766;2.718;2022-09-12T03:40:02;3.97;;;1.63;;
51521;SDS011;37608;39.766;2.718;2022-09-12T03:42:28;1.45;;;1.15;;
51521;SDS011;37608;39.766;2.718;2022-09-12T03:44:53;1.30;;;0.95;;
51521;SDS011;37608;39.766;2.718;2022-09-12T03:47:18;3.50;;;1.48;;
51521;SDS011;37608;39.766;2.718;2022-09-12T03:49:44;1.40;;;0.60;;
51521;SDS011;37608;39.766;2.718;2022-09-12T03:52:09;1.33;;;0.63;;
51521;SDS011;37608;39.766;2.718;2022-09-12T03:54:34;1.13;;;0.68;;
51521;SDS011;37608;39.766;2.718;2022-09-12T03:57:00;10.40;;;0.88;;
51521;SDS011;37608;39.766;2.718;2022-09-12T03:59:25;3.33;;;1.52;;
51521;SDS011;37608;39.766;2.718;2022-09-12T04:01:51;1.10;;;0.68;;
51521;SDS011;37608;39.766;2.718;2022-09-12T04:04:16;3.22;;;0.68;;
51521;SDS011;37608;39.766;2.718;2022-09-12T04:06:41;2.25;;;0.88;;
51521;SDS011;37608;39.766;2.718;2022-09-12T04:09:08;0.68;;;0.30;;
51521;SDS011;37608;39.766;2.718;2022-09-12T04:11:33;0.95;;;0.52;;
51521;SDS011;37608;39.766;2.718;2022-09-12T04:14:00;1.02;;;0.90;;
51521;SDS011;37608;39.766;2.718;2022-09-12T04:16:25;1.35;;;0.65;;
51521;SDS011;37608;39.766;2.718;2022-09-12T04:18:50;5.68;;;0.88;;
51521;SDS011;37608;39.766;2.718;2022-09-12T04:21:17;12.55;;;0.93;;
51521;SDS011;37608;39.766;2.718;2022-09-12T04:23:42;4.22;;;1.30;;
51521;SDS011;37608;39.766;2.718;2022-09-12T04:26:08;1.00;;;0.40;;
51521;SDS011;37608;39.766;2.718;2022-09-12T04:28:34;2.10;;;0.75;;
51521;SDS011;37608;39.766;2.718;2022-09-12T04:31:00;0.68;;;0.55;;
51521;SDS011;37608;39.766;2.718;2022-09-12T04:33:26;3.15;;;0.90;;
51521;SDS011;37608;39.766;2.718;2022-09-12T04:35:51;1.85;;;0.80;;
51521;SDS011;37608;39.766;2.718;2022-09-12T04:38:16;1.50;;;0.45;;
51521;SDS011;37608;39.766;2.718;2022-09-12T04:40:42;1.77;;;0.60;;
51521;SDS011;37608;39.766;2.718;2022-09-12T04:43:07;1.20;;;0.55;;
51521;SDS011;37608;39.766;2.718;2022-09-12T04:45:33;5.95;;;0.80;;
51521;SDS011;37608;39.766;2.718;2022-09-12T04:47:58;1.45;;;0.80;;
51521;SDS011;37608;39.766;2.718;2022-09-12T04:50:24;1.88;;;1.00;;
51521;SDS011;37608;39.766;2.718;2022-09-12T04:52:50;1.20;;;0.95;;
51521;SDS011;37608;39.766;2.718;2022-09-12T04:55:15;2.13;;;1.42;;
51521;SDS011;37608;39.766;2.718;2022-09-12T04:57:40;4.80;;;1.58;;
51521;SDS011;37608;39.766;2.718;2022-09-12T05:00:07;1.67;;;0.80;;
51521;SDS011;37608;39.766;2.718;2022-09-12T05:02:33;1.73;;;1.08;;
51521;SDS011;37608;39.766;2.718;2022-09-12T05:04:58;1.10;;;0.80;;
51521;SDS011;37608;39.766;2.718;2022-09-12T05:07:23;0.93;;;0.50;;
51521;SDS011;37608;39.766;2.718;2022-09-12T05:09:49;5.75;;;1.50;;
51521;SDS011;37608;39.766;2.718;2022-09-12T05:12:14;1.30;;;0.80;;
51521;SDS011;37608;39.766;2.718;2022-09-12T05:14:39;4.88;;;0.90;;
51521;SDS011;37608;39.766;2.718;2022-09-12T05:17:05;2.20;;;1.33;;
51521;SDS011;37608;39.766;2.718;2022-09-12T05:19:30;5.38;;;0.93;;
51521;SDS011;37608;39.766;2.718;2022-09-12T05:21:55;2.33;;;1.13;;
51521;SDS011;37608;39.766;2.718;2022-09-12T05:24:21;1.85;;;1.30;;
51521;SDS011;37608;39.766;2.718;2022-09-12T05:26:46;3.17;;;1.58;;
51521;SDS011;37608;39.766;2.718;2022-09-12T05:29:11;2.72;;;1.10;;
51521;SDS011;37608;39.766;2.718;2022-09-12T05:31:37;3.55;;;2.33;;
51521;SDS011;37608;39.766;2.718;2022-09-12T05:34:03;3.88;;;1.42;;
51521;SDS011;37608;39.766;2.718;2022-09-12T05:36:32;2.33;;;1.73;;
51521;SDS011;37608;39.766;2.718;2022-09-12T05:38:58;4.00;;;1.05;;
51521;SDS011;37608;39.766;2.718;2022-09-12T05:41:28;2.90;;;1.80;;
51521;SDS011;37608;39.766;2.718;2022-09-12T05:43:58;7.03;;;0.90;;
51521;SDS011;37608;39.766;2.718;2022-09-12T05:46:28;7.88;;;1.38;;
51521;SDS011;37608;39.766;2.718;2022-09-12T05:48:53;37.63;;;11.18;;
51521;SDS011;37608;39.766;2.718;2022-09-12T05:51:23;4.00;;;1.55;;
51521;SDS011;37608;39.766;2.718;2022-09-12T05:53:51;0.33;;;0.33;;
51521;SDS011;37608;39.766;2.718;2022-09-12T05:56:20;5.82;;;1.88;;
51521;SDS011;37608;39.766;2.718;2022-09-12T06:01:17;2.97;;;1.10;;
51521;SDS011;37608;39.766;2.718;2022-09-12T06:03:43;8.85;;;1.95;;
51521;SDS011;37608;39.766;2.718;2022-09-12T06:06:09;3.65;;;1.33;;
51521;SDS011;37608;39.766;2.718;2022-09-12T06:08:37;1.45;;;0.75;;
51521;SDS011;37608;39.766;2.718;2022-09-12T06:11:04;4.22;;;1.17;;
51521;SDS011;37608;39.766;2.718;2022-09-12T06:13:30;6.15;;;1.73;;
51521;SDS011;37608;39.766;2.718;2022-09-12T06:16:00;4.78;;;1.60;;
51521;SDS011;37608;39.766;2.718;2022-09-12T06:18:26;1.63;;;0.82;;
51521;SDS011;37608;39.766;2.718;2022-09-12T06:20:52;8.13;;;1.45;;
51521;SDS011;37608;39.766;2.718;2022-09-12T06:23:17;14.07;;;2.90;;
51521;SDS011;37608;39.766;2.718;2022-09-12T06:25:46;2.00;;;1.10;;
51521;SDS011;37608;39.766;2.718;2022-09-12T06:28:12;9.52;;;1.40;;
51521;SDS011;37608;39.766;2.718;2022-09-12T06:30:37;4.72;;;1.52;;
51521;SDS011;37608;39.766;2.718;2022-09-12T06:33:02;5.05;;;1.45;;
51521;SDS011;37608;39.766;2.718;2022-09-12T06:35:28;4.45;;;0.68;;
51521;SDS011;37608;39.766;2.718;2022-09-12T06:37:53;5.18;;;2.53;;
51521;SDS011;37608;39.766;2.718;2022-09-12T06:40:18;3.10;;;1.45;;
51521;SDS011;37608;39.766;2.718;2022-09-12T06:42:44;20.52;;;2.20;;
51521;SDS011;37608;39.766;2.718;2022-09-12T06:45:09;1.48;;;1.17;;
51521;SDS011;37608;39.766;2.718;2022-09-12T06:47:35;4.97;;;2.22;;
51521;SDS011;37608;39.766;2.718;2022-09-12T06:50:01;6.95;;;2.85;;
51521;SDS011;37608;39.766;2.718;2022-09-12T06:52:26;11.50;;;8.13;;
51521;SDS011;37608;39.766;2.718;2022-09-12T06:54:53;9.20;;;4.95;;
51521;SDS011;37608;39.766;2.718;2022-09-12T06:57:18;6.00;;;3.22;;
51521;SDS011;37608;39.766;2.718;2022-09-12T06:59:43;4.72;;;2.75;;
51521;SDS011;37608;39.766;2.718;2022-09-12T07:02:09;3.95;;;2.42;;
51521;SDS011;37608;39.766;2.718;2022-09-12T07:04:34;0.95;;;0.65;;
51521;SDS011;37608;39.766;2.718;2022-09-12T07:07:01;2.83;;;1.42;;
51521;SDS011;37608;39.766;2.718;2022-09-12T07:09:26;2.30;;;0.68;;
51521;SDS011;37608;39.766;2.718;2022-09-12T07:11:53;3.22;;;1.77;;
51521;SDS011;37608;39.766;2.718;2022-09-12T07:14:18;1.92;;;0.60;;
51521;SDS011;37608;39.766;2.718;2022-09-12T07:16:44;11.60;;;1.15;;
51521;SDS011;37608;39.766;2.718;2022-09-12T07:19:09;2.15;;;1.30;;
51521;SDS011;37608;39.766;2.718;2022-09-12T07:21:35;4.93;;;1.80;;
51521;SDS011;37608;39.766;2.718;2022-09-12T07:24:03;7.22;;;1.13;;
51521;SDS011;37608;39.766;2.718;2022-09-12T07:26:29;16.58;;;5.55;;
51521;SDS011;37608;39.766;2.718;2022-09-12T07:28:55;7.43;;;3.22;;
51521;SDS011;37608;39.766;2.718;2022-09-12T07:31:24;18.45;;;9.18;;
51521;SDS011;37608;39.766;2.718;2022-09-12T07:33:49;19.85;;;11.98;;
51521;SDS011;37608;39.766;2.718;2022-09-12T07:36:19;16.77;;;10.10;;
51521;SDS011;37608;39.766;2.718;2022-09-12T07:38:46;6.85;;;6.03;;
51521;SDS011;37608;39.766;2.718;2022-09-12T07:43:39;19.30;;;8.15;;
51521;SDS011;37608;39.766;2.718;2022-09-12T07:46:05;22.55;;;8.80;;
51521;SDS011;37608;39.766;2.718;2022-09-12T07:48:31;21.98;;;7.28;;
51521;SDS011;37608;39.766;2.718;2022-09-12T07:51:01;11.18;;;5.95;;
51521;SDS011;37608;39.766;2.718;2022-09-12T07:53:31;28.23;;;7.80;;
51521;SDS011;37608;39.766;2.718;2022-09-12T07:55:58;9.80;;;4.75;;
51521;SDS011;37608;39.766;2.718;2022-09-12T07:58:23;6.25;;;4.07;;
51521;SDS011;37608;39.766;2.718;2022-09-12T08:00:49;21.25;;;7.43;;
51521;SDS011;37608;39.766;2.718;2022-09-12T08:03:14;2.72;;;0.85;;
51521;SDS011;37608;39.766;2.718;2022-09-12T08:05:39;4.00;;;1.50;;
51521;SDS011;37608;39.766;2.718;2022-09-12T08:08:05;3.42;;;0.80;;
51521;SDS011;37608;39.766;2.718;2022-09-12T08:10:30;14.43;;;9.43;;
51521;SDS011;37608;39.766;2.718;2022-09-12T08:12:56;13.70;;;10.48;;
51521;SDS011;37608;39.766;2.718;2022-09-12T08:15:21;17.42;;;7.53;;
51521;SDS011;37608;39.766;2.718;2022-09-12T08:17:46;6.75;;;4.28;;
51521;SDS011;37608;39.766;2.718;2022-09-12T08:20:12;5.82;;;3.63;;
51521;SDS011;37608;39.766;2.718;2022-09-12T08:22:37;5.57;;;2.67;;
51521;SDS011;37608;39.766;2.718;2022-09-12T08:25:05;2.72;;;1.55;;
51521;SDS011;37608;39.766;2.718;2022-09-12T08:27:30;5.30;;;1.48;;
51521;SDS011;37608;39.766;2.718;2022-09-12T08:29:55;6.97;;;3.70;;
51521;SDS011;37608;39.766;2.718;2022-09-12T08:32:21;2.38;;;1.58;;
51521;SDS011;37608;39.766;2.718;2022-09-12T08:34:46;2.90;;;1.45;;
51521;SDS011;37608;39.766;2.718;2022-09-12T08:37:11;2.42;;;0.75;;
51521;SDS011;37608;39.766;2.718;2022-09-12T08:39:37;0.93;;;0.63;;
51521;SDS011;37608;39.766;2.718;2022-09-12T08:42:03;2.45;;;1.17;;
51521;SDS011;37608;39.766;2.718;2022-09-12T08:44:49;1.35;;;0.80;;
51521;SDS011;37608;39.766;2.718;2022-09-12T08:47:22;2.78;;;1.45;;
51521;SDS011;37608;39.766;2.718;2022-09-12T08:52:32;7.43;;;2.15;;
51521;SDS011;37608;39.766;2.718;2022-09-12T08:55:00;3.95;;;1.27;;
51521;SDS011;37608;39.766;2.718;2022-09-12T08:57:26;8.65;;;2.50;;
51521;SDS011;37608;39.766;2.718;2022-09-12T08:59:52;5.57;;;1.52;;
51521;SDS011;37608;39.766;2.718;2022-09-12T09:17:45;2.17;;;1.10;;
51521;SDS011;37608;39.766;2.718;2022-09-12T09:22:58;1.48;;;0.50;;
51521;SDS011;37608;39.766;2.718;2022-09-12T09:28:18;1.23;;;0.70;;
51521;SDS011;37608;39.766;2.718;2022-09-12T09:30:45;0.93;;;0.65;;
51521;SDS011;37608;39.766;2.718;2022-09-12T09:33:27;3.13;;;0.70;;
51521;SDS011;37608;39.766;2.718;2022-09-12T09:38:28;0.93;;;0.52;;
51521;SDS011;37608;39.766;2.718;2022-09-12T09:41:06;1.05;;;0.63;;
51521;SDS011;37608;39.766;2.718;2022-09-12T09:43:34;9.43;;;1.25;;
51521;SDS011;37608;39.766;2.718;2022-09-12T09:46:01;1.48;;;0.85;;
51521;SDS011;37608;39.766;2.718;2022-09-12T09:50:52;8.25;;;1.17;;
51521;SDS011;37608;39.766;2.718;2022-09-12T09:53:51;2.15;;;1.05;;
51521;SDS011;37608;39.766;2.718;2022-09-12T09:56:25;1.92;;;1.42;;
51521;SDS011;37608;39.766;2.718;2022-09-12T10:01:16;6.10;;;1.60;;
51521;SDS011;37608;39.766;2.718;2022-09-12T10:08:44;1.25;;;0.88;;
51521;SDS011;37608;39.766;2.718;2022-09-12T10:11:20;6.05;;;1.55;;
51521;SDS011;37608;39.766;2.718;2022-09-12T10:16:22;2.15;;;1.05;;
51521;SDS011;37608;39.766;2.718;2022-09-12T10:18:48;3.33;;;1.83;;
51521;SDS011;37608;39.766;2.718;2022-09-12T10:23:46;1.00;;;0.57;;
51521;SDS011;37608;39.766;2.718;2022-09-12T10:26:15;1.55;;;0.73;;
51521;SDS011;37608;39.766;2.718;2022-09-12T10:28:46;0.73;;;0.63;;
51521;SDS011;37608;39.766;2.718;2022-09-12T10:31:14;1.08;;;0.45;;
51521;SDS011;37608;39.766;2.718;2022-09-12T10:33:41;8.07;;;1.27;;
51521;SDS011;37608;39.766;2.718;2022-09-12T10:36:07;1.73;;;1.13;;
51521;SDS011;37608;39.766;2.718;2022-09-12T10:38:33;7.82;;;1.73;;
51521;SDS011;37608;39.766;2.718;2022-09-12T10:41:05;4.60;;;1.73;;
51521;SDS011;37608;39.766;2.718;2022-09-12T10:51:10;2.83;;;0.90;;
51521;SDS011;37608;39.766;2.718;2022-09-12T10:53:42;11.00;;;3.03;;
51521;SDS011;37608;39.766;2.718;2022-09-12T11:06:19;7.32;;;2.83;;
51521;SDS011;37608;39.766;2.718;2022-09-12T11:08:58;7.63;;;2.83;;
51521;SDS011;37608;39.766;2.718;2022-09-12T11:14:03;6.18;;;3.45;;
51521;SDS011;37608;39.766;2.718;2022-09-12T11:29:28;2.03;;;1.20;;
51521;SDS011;37608;39.766;2.718;2022-09-12T11:34:29;1.33;;;1.23;;
51521;SDS011;37608;39.766;2.718;2022-09-12T11:39:36;1.45;;;0.90;;
51521;SDS011;37608;39.766;2.718;2022-09-12T11:42:02;2.95;;;1.23;;
51521;SDS011;37608;39.766;2.718;2022-09-12T11:44:36;1.73;;;0.90;;
51521;SDS011;37608;39.766;2.718;2022-09-12T11:47:05;2.28;;;0.70;;
51521;SDS011;37608;39.766;2.718;2022-09-12T11:49:35;1.30;;;0.95;;
51521;SDS011;37608;39.766;2.718;2022-09-12T11:54:56;1.27;;;1.02;;
51521;SDS011;37608;39.766;2.718;2022-09-12T12:02:24;6.50;;;0.70;;
51521;SDS011;37608;39.766;2.718;2022-09-12T12:07:19;1.02;;;0.75;;
51521;SDS011;37608;39.766;2.718;2022-09-12T12:09:48;1.98;;;0.95;;
51521;SDS011;37608;39.766;2.718;2022-09-12T12:12:15;8.57;;;3.72;;
51521;SDS011;37608;39.766;2.718;2022-09-12T12:14:43;1.25;;;0.57;;
51521;SDS011;37608;39.766;2.718;2022-09-12T12:17:14;1.48;;;0.70;;
51521;SDS011;37608;39.766;2.718;2022-09-12T12:19:40;2.42;;;1.02;;
51521;SDS011;37608;39.766;2.718;2022-09-12T12:22:07;2.83;;;0.80;;
51521;SDS011;37608;39.766;2.718;2022-09-12T12:24:32;2.20;;;1.33;;
51521;SDS011;37608;39.766;2.718;2022-09-12T12:27:02;1.63;;;0.82;;
51521;SDS011;37608;39.766;2.718;2022-09-12T12:29:35;1.00;;;0.70;;
51521;SDS011;37608;39.766;2.718;2022-09-12T12:34:33;8.25;;;1.85;;
51521;SDS011;37608;39.766;2.718;2022-09-12T12:37:47;6.88;;;1.40;;
51521;SDS011;37608;39.766;2.718;2022-09-12T12:44:56;2.15;;;1.15;;
51521;SDS011;37608;39.766;2.718;2022-09-12T12:47:22;4.07;;;1.83;;
51521;SDS011;37608;39.766;2.718;2022-09-12T12:50:11;2.15;;;1.25;;
51521;SDS011;37608;39.766;2.718;2022-09-12T12:55:23;4.35;;;1.70;;
51521;SDS011;37608;39.766;2.718;2022-09-12T12:57:54;4.53;;;1.00;;
51521;SDS011;37608;39.766;2.718;2022-09-12T13:02:55;10.90;;;2.25;;
51521;SDS011;37608;39.766;2.718;2022-09-12T13:05:22;3.55;;;1.42;;
51521;SDS011;37608;39.766;2.718;2022-09-12T13:07:53;2.38;;;1.20;;
51521;SDS011;37608;39.766;2.718;2022-09-12T13:10:21;1.25;;;1.15;;
51521;SDS011;37608;39.766;2.718;2022-09-12T13:12:47;3.90;;;2.05;;
51521;SDS011;37608;39.766;2.718;2022-09-12T13:17:58;5.53;;;1.20;;
51521;SDS011;37608;39.766;2.718;2022-09-12T13:20:26;10.43;;;1.88;;
51521;SDS011;37608;39.766;2.718;2022-09-12T13:22:52;3.25;;;1.45;;
51521;SDS011;37608;39.766;2.718;2022-09-12T13:27:55;1.67;;;0.82;;
51521;SDS011;37608;39.766;2.718;2022-09-12T13:30:20;1.30;;;0.82;;
51521;SDS011;37608;39.766;2.718;2022-09-12T13:32:45;3.40;;;1.65;;
51521;SDS011;37608;39.766;2.718;2022-09-12T13:35:22;2.70;;;1.90;;
51521;SDS011;37608;39.766;2.718;2022-09-12T13:37:51;1.13;;;0.90;;
51521;SDS011;37608;39.766;2.718;2022-09-12T13:42:46;3.87;;;1.47;;
51521;SDS011;37608;39.766;2.718;2022-09-12T13:45:22;12.35;;;1.67;;
51521;SDS011;37608;39.766;2.718;2022-09-12T13:47:55;3.75;;;1.15;;
51521;SDS011;37608;39.766;2.718;2022-09-12T13:50:25;2.92;;;0.82;;
51521;SDS011;37608;39.766;2.718;2022-09-12T13:52:55;2.37;;;0.90;;
51521;SDS011;37608;39.766;2.718;2022-09-12T13:55:26;1.65;;;1.05;;
51521;SDS011;37608;39.766;2.718;2022-09-12T13:58:35;0.73;;;0.38;;
51521;SDS011;37608;39.766;2.718;2022-09-12T14:00:41;1.00;;;0.63;;
51521;SDS011;37608;39.766;2.718;2022-09-12T14:03:26;7.13;;;1.23;;
51521;SDS011;37608;39.766;2.718;2022-09-12T14:06:10;3.92;;;0.60;;
51521;SDS011;37608;39.766;2.718;2022-09-12T14:08:39;2.28;;;0.57;;
51521;SDS011;37608;39.766;2.718;2022-09-12T14:11:09;2.78;;;0.90;;
51521;SDS011;37608;39.766;2.718;2022-09-12T14:13:35;0.90;;;0.50;;
51521;SDS011;37608;39.766;2.718;2022-09-12T14:16:02;1.73;;;0.85;;
51521;SDS011;37608;39.766;2.718;2022-09-12T14:18:32;1.30;;;0.80;;
51521;SDS011;37608;39.766;2.718;2022-09-12T14:21:10;1.55;;;0.82;;
51521;SDS011;37608;39.766;2.718;2022-09-12T14:23:40;0.57;;;0.30;;
51521;SDS011;37608;39.766;2.718;2022-09-12T14:26:08;2.17;;;1.10;;
51521;SDS011;37608;39.766;2.718;2022-09-12T14:28:36;1.30;;;1.20;;
51521;SDS011;37608;39.766;2.718;2022-09-12T14:31:04;4.18;;;0.85;;
51521;SDS011;37608;39.766;2.718;2022-09-12T14:33:32;0.88;;;0.63;;
51521;SDS011;37608;39.766;2.718;2022-09-12T14:38:42;1.60;;;0.65;;
51521;SDS011;37608;39.766;2.718;2022-09-12T14:41:09;1.30;;;0.50;;
51521;SDS011;37608;39.766;2.718;2022-09-12T14:43:36;1.60;;;0.90;;
51521;SDS011;37608;39.766;2.718;2022-09-12T14:46:03;1.17;;;0.73;;
51521;SDS011;37608;39.766;2.718;2022-09-12T14:48:30;0.73;;;0.55;;
51521;SDS011;37608;39.766;2.718;2022-09-12T14:50:56;1.67;;;1.15;;
51521;SDS011;37608;39.766;2.718;2022-09-12T14:53:35;8.07;;;3.38;;
51521;SDS011;37608;39.766;2.718;2022-09-12T14:56:05;20.27;;;2.35;;
51521;SDS011;37608;39.766;2.718;2022-09-12T14:58:31;1.20;;;0.73;;
51521;SDS011;37608;39.766;2.718;2022-09-12T15:03:26;0.65;;;0.30;;
51521;SDS011;37608;39.766;2.718;2022-09-12T15:05:52;4.70;;;1.27;;
51521;SDS011;37608;39.766;2.718;2022-09-12T15:08:17;5.07;;;2.22;;
51521;SDS011;37608;39.766;2.718;2022-09-12T15:10:42;6.45;;;1.67;;
51521;SDS011;37608;39.766;2.718;2022-09-12T15:13:10;1.55;;;0.82;;
51521;SDS011;37608;39.766;2.718;2022-09-12T15:15:38;2.60;;;1.00;;
51521;SDS011;37608;39.766;2.718;2022-09-12T15:18:04;4.93;;;1.00;;
51521;SDS011;37608;39.766;2.718;2022-09-12T15:20:30;4.07;;;1.15;;
51521;SDS011;37608;39.766;2.718;2022-09-12T15:22:56;4.43;;;1.65;;
51521;SDS011;37608;39.766;2.718;2022-09-12T15:25:21;3.15;;;1.75;;
51521;SDS011;37608;39.766;2.718;2022-09-12T15:27:46;0.93;;;0.77;;
51521;SDS011;37608;39.766;2.718;2022-09-12T15:30:12;1.25;;;0.50;;
51521;SDS011;37608;39.766;2.718;2022-09-12T15:32:38;1.05;;;0.68;;
51521;SDS011;37608;39.766;2.718;2022-09-12T15:35:22;0.80;;;0.40;;
51521;SDS011;37608;39.766;2.718;2022-09-12T15:37:48;1.38;;;0.75;;
51521;SDS011;37608;39.766;2.718;2022-09-12T15:40:13;1.60;;;0.88;;
51521;SDS011;37608;39.766;2.718;2022-09-12T15:42:39;5.47;;;1.05;;
51521;SDS011;37608;39.766;2.718;2022-09-12T15:45:09;2.30;;;0.80;;
51521;SDS011;37608;39.766;2.718;2022-09-12T15:47:41;1.65;;;0.80;;
51521;SDS011;37608;39.766;2.718;2022-09-12T15:50:07;2.40;;;0.82;;
51521;SDS011;37608;39.766;2.718;2022-09-12T15:52:32;8.65;;;0.88;;
51521;SDS011;37608;39.766;2.718;2022-09-12T15:54:58;11.48;;;1.48;;
51521;SDS011;37608;39.766;2.718;2022-09-12T15:57:23;1.15;;;0.60;;
51521;SDS011;37608;39.766;2.718;2022-09-12T15:59:49;2.25;;;0.98;;
51521;SDS011;37608;39.766;2.718;2022-09-12T16:02:14;3.40;;;1.20;;
51521;SDS011;37608;39.766;2.718;2022-09-12T16:04:40;3.22;;;1.50;;
51521;SDS011;37608;39.766;2.718;2022-09-12T16:07:05;2.28;;;0.55;;
51521;SDS011;37608;39.766;2.718;2022-09-12T16:09:30;0.57;;;0.40;;
51521;SDS011;37608;39.766;2.718;2022-09-12T16:11:56;6.78;;;0.85;;
51521;SDS011;37608;39.766;2.718;2022-09-12T16:14:21;8.70;;;6.55;;
51521;SDS011;37608;39.766;2.718;2022-09-12T16:16:52;2.33;;;1.58;;
51521;SDS011;37608;39.766;2.718;2022-09-12T16:19:18;3.10;;;1.15;;
51521;SDS011;37608;39.766;2.718;2022-09-12T16:21:44;4.13;;;0.60;;
51521;SDS011;37608;39.766;2.718;2022-09-12T16:24:09;2.53;;;0.80;;
51521;SDS011;37608;39.766;2.718;2022-09-12T16:26:35;2.58;;;0.60;;
51521;SDS011;37608;39.766;2.718;2022-09-12T16:29:00;3.03;;;0.93;;
51521;SDS011;37608;39.766;2.718;2022-09-12T16:31:26;1.52;;;0.90;;
51521;SDS011;37608;39.766;2.718;2022-09-12T16:33:51;3.03;;;1.25;;
51521;SDS011;37608;39.766;2.718;2022-09-12T16:36:18;2.08;;;1.23;;
51521;SDS011;37608;39.766;2.718;2022-09-12T16:38:50;1.65;;;0.60;;
51521;SDS011;37608;39.766;2.718;2022-09-12T16:41:17;2.70;;;1.05;;
51521;SDS011;37608;39.766;2.718;2022-09-12T16:43:43;2.20;;;0.98;;
51521;SDS011;37608;39.766;2.718;2022-09-12T16:46:10;1.73;;;0.80;;
51521;SDS011;37608;39.766;2.718;2022-09-12T16:48:36;1.08;;;0.73;;
51521;SDS011;37608;39.766;2.718;2022-09-12T16:51:03;0.73;;;0.20;;
51521;SDS011;37608;39.766;2.718;2022-09-12T16:53:32;11.13;;;0.90;;
51521;SDS011;37608;39.766;2.718;2022-09-12T16:55:58;1.63;;;0.73;;
51521;SDS011;37608;39.766;2.718;2022-09-12T16:58:23;14.77;;;1.58;;
51521;SDS011;37608;39.766;2.718;2022-09-12T17:00:48;1.13;;;0.77;;
51521;SDS011;37608;39.766;2.718;2022-09-12T17:03:23;1.80;;;0.70;;
51521;SDS011;37608;39.766;2.718;2022-09-12T17:05:56;1.48;;;0.65;;
51521;SDS011;37608;39.766;2.718;2022-09-12T17:08:21;1.02;;;0.85;;
51521;SDS011;37608;39.766;2.718;2022-09-12T17:10:46;1.65;;;0.80;;
51521;SDS011;37608;39.766;2.718;2022-09-12T17:13:12;9.60;;;0.68;;
51521;SDS011;37608;39.766;2.718;2022-09-12T17:15:37;7.00;;;2.10;;
51521;SDS011;37608;39.766;2.718;2022-09-12T17:18:02;4.22;;;1.00;;
51521;SDS011;37608;39.766;2.718;2022-09-12T17:20:28;1.38;;;0.90;;
51521;SDS011;37608;39.766;2.718;2022-09-12T17:22:53;1.13;;;0.65;;
51521;SDS011;37608;39.766;2.718;2022-09-12T17:25:18;4.05;;;1.35;;
51521;SDS011;37608;39.766;2.718;2022-09-12T17:27:43;2.65;;;0.60;;
51521;SDS011;37608;39.766;2.718;2022-09-12T17:30:09;26.65;;;1.40;;
51521;SDS011;37608;39.766;2.718;2022-09-12T17:32:34;1.30;;;0.70;;
51521;SDS011;37608;39.766;2.718;2022-09-12T17:34:59;0.65;;;0.47;;
51521;SDS011;37608;39.766;2.718;2022-09-12T17:37:25;2.58;;;0.98;;
51521;SDS011;37608;39.766;2.718;2022-09-12T17:39:50;3.38;;;0.82;;
51521;SDS011;37608;39.766;2.718;2022-09-12T17:42:15;1.58;;;0.77;;
51521;SDS011;37608;39.766;2.718;2022-09-12T17:44:41;1.77;;;0.68;;